createdAt,value
2019-03-30T00:00:33.988Z,7.50
2019-03-30T00:03:03.559Z,7.50
2019-03-30T00:05:33.267Z,7.40
2019-03-30T00:08:02.830Z,7.40
2019-03-30T00:10:32.362Z,7.40
2019-03-30T00:13:01.893Z,7.40
2019-03-30T00:15:31.431Z,7.30
2019-03-30T00:18:00.954Z,7.20
2019-03-30T00:20:30.515Z,7.30
2019-03-30T00:23:00.026Z,7.20
2019-03-30T00:25:29.616Z,7.20
2019-03-30T00:27:59.300Z,7.10
2019-03-30T00:30:28.934Z,7.10
2019-03-30T00:32:58.530Z,7.00
2019-03-30T00:35:28.171Z,6.90
2019-03-30T00:37:57.758Z,6.90
2019-03-30T00:40:27.363Z,6.80
2019-03-30T00:42:57.011Z,6.80
2019-03-30T00:45:26.581Z,6.80
2019-03-30T00:47:56.165Z,6.60
2019-03-30T00:50:25.954Z,6.60
2019-03-30T00:52:55.581Z,6.60
2019-03-30T00:55:25.130Z,6.50
2019-03-30T00:57:54.907Z,6.50
2019-03-30T01:00:24.485Z,6.40
2019-03-30T01:02:53.999Z,6.40
2019-03-30T01:05:23.563Z,6.40
2019-03-30T01:07:53.095Z,6.30
2019-03-30T01:10:22.609Z,6.20
2019-03-30T01:12:52.164Z,6.20
2019-03-30T01:15:21.838Z,6.20
2019-03-30T01:17:51.454Z,6.10
2019-03-30T01:20:21.001Z,6.10
2019-03-30T01:22:50.565Z,6.10
2019-03-30T01:25:20.122Z,6.10
2019-03-30T01:27:49.754Z,6.00
2019-03-30T01:30:23.324Z,6.00
2019-03-30T01:32:50.683Z,6.00
2019-03-30T01:35:20.277Z,5.90
2019-03-30T01:37:49.907Z,5.90
2019-03-30T01:40:19.497Z,5.90
2019-03-30T01:42:49.091Z,5.90
2019-03-30T01:45:18.641Z,5.80
2019-03-30T01:47:48.203Z,5.80
2019-03-30T01:50:18.229Z,5.80
2019-03-30T01:52:47.872Z,5.70
2019-03-30T01:55:17.366Z,5.70
2019-03-30T01:57:47.210Z,5.70
2019-03-30T02:00:17.322Z,5.70
2019-03-30T02:02:46.837Z,5.60
2019-03-30T02:05:16.699Z,5.50
2019-03-30T02:07:46.306Z,5.50
2019-03-30T02:10:18.907Z,5.50
2019-03-30T02:12:48.521Z,5.40
2019-03-30T02:15:18.106Z,5.40
2019-03-30T02:17:47.722Z,5.30
2019-03-30T02:20:36.639Z,5.30
2019-03-30T02:23:06.302Z,5.30
2019-03-30T02:25:35.918Z,5.20
2019-03-30T02:28:07.121Z,5.20
2019-03-30T02:30:37.160Z,5.20
2019-03-30T02:33:06.781Z,5.20
2019-03-30T02:35:36.538Z,5.20
2019-03-30T02:38:06.154Z,5.20
2019-03-30T02:40:35.917Z,5.20
2019-03-30T02:43:05.509Z,5.10
2019-03-30T02:45:35.241Z,5.10
2019-03-30T02:48:04.785Z,5.00
2019-03-30T02:50:48.651Z,5.00
2019-03-30T02:53:05.619Z,5.00
2019-03-30T02:55:35.169Z,4.90
2019-03-30T02:58:04.810Z,4.90
2019-03-30T03:00:34.365Z,4.90
2019-03-30T03:03:04.190Z,4.90
2019-03-30T03:05:33.810Z,4.90
2019-03-30T03:08:03.387Z,4.90
2019-03-30T03:10:33.077Z,4.80
2019-03-30T03:13:02.673Z,4.80
2019-03-30T03:15:32.271Z,4.80
2019-03-30T03:18:01.829Z,4.80
2019-03-30T03:20:31.350Z,4.80
2019-03-30T03:23:00.929Z,4.70
2019-03-30T03:25:30.961Z,4.70
2019-03-30T03:28:00.535Z,4.70
2019-03-30T03:30:30.112Z,4.60
2019-03-30T03:32:59.717Z,4.60
2019-03-30T03:35:29.677Z,4.60
2019-03-30T03:37:59.270Z,4.60
2019-03-30T03:40:28.949Z,4.50
2019-03-30T03:42:58.500Z,4.50
2019-03-30T03:45:28.019Z,4.50
2019-03-30T03:47:57.567Z,4.50
2019-03-30T03:50:46.623Z,4.50
2019-03-30T03:53:16.903Z,4.50
2019-03-30T03:55:46.842Z,4.50
2019-03-30T03:58:17.421Z,4.40
2019-03-30T04:00:47.222Z,4.40
2019-03-30T04:03:17.872Z,4.40
2019-03-30T04:05:47.908Z,4.40
2019-03-30T04:08:17.734Z,4.30
2019-03-30T04:10:47.824Z,4.40
2019-03-30T04:13:17.671Z,4.30
2019-03-30T04:15:47.185Z,4.30
2019-03-30T04:18:17.891Z,4.30
2019-03-30T04:20:47.474Z,4.30
2019-03-30T04:23:17.036Z,4.30
2019-03-30T04:25:46.755Z,4.30
2019-03-30T04:28:16.480Z,4.30
2019-03-30T04:30:46.177Z,4.20
2019-03-30T04:33:16.712Z,4.30
2019-03-30T04:35:46.355Z,4.20
2019-03-30T04:38:15.920Z,4.20
2019-03-30T04:40:45.524Z,4.20
2019-03-30T04:43:15.092Z,4.20
2019-03-30T04:45:44.770Z,4.20
2019-03-30T04:48:14.303Z,4.20
2019-03-30T04:50:43.886Z,4.10
2019-03-30T04:53:13.413Z,4.20
2019-03-30T04:55:42.942Z,4.10
2019-03-30T04:58:12.475Z,4.10
2019-03-30T05:00:42.210Z,4.10
2019-03-30T05:03:11.747Z,4.10
2019-03-30T05:05:43.090Z,4.10
2019-03-30T05:08:12.592Z,4.10
2019-03-30T05:10:42.210Z,4.10
2019-03-30T05:13:11.942Z,4.10
2019-03-30T05:15:41.466Z,4.10
2019-03-30T05:18:11.025Z,4.10
2019-03-30T05:20:40.573Z,4.00
2019-03-30T05:23:10.146Z,4.00
2019-03-30T05:25:39.695Z,4.00
2019-03-30T05:28:09.307Z,4.00
2019-03-30T05:30:38.892Z,4.00
2019-03-30T05:33:08.491Z,4.00
2019-03-30T05:35:38.096Z,4.00
2019-03-30T05:38:07.650Z,4.00
2019-03-30T05:40:38.188Z,4.00
2019-03-30T05:43:07.832Z,4.00
2019-03-30T05:45:37.390Z,4.10
2019-03-30T05:48:06.927Z,4.10
2019-03-30T05:50:36.663Z,4.10
2019-03-30T05:53:06.262Z,4.10
2019-03-30T05:55:36.211Z,4.20
2019-03-30T05:58:05.786Z,4.30
2019-03-30T06:00:35.333Z,4.30
2019-03-30T06:03:04.937Z,4.50
2019-03-30T06:05:34.600Z,4.60
2019-03-30T06:08:04.171Z,4.80
2019-03-30T06:10:33.758Z,4.90
2019-03-30T06:13:03.344Z,5.10
2019-03-30T06:15:32.887Z,5.30
2019-03-30T06:18:02.485Z,5.50
2019-03-30T06:20:32.058Z,5.60
2019-03-30T06:23:01.597Z,5.80
2019-03-30T06:25:31.191Z,5.90
2019-03-30T06:28:00.755Z,6.00
2019-03-30T06:30:30.314Z,6.20
2019-03-30T06:32:59.908Z,6.40
2019-03-30T06:35:29.493Z,6.60
2019-03-30T06:37:59.019Z,6.80
2019-03-30T06:40:28.734Z,7.00
2019-03-30T06:42:58.356Z,7.30
2019-03-30T06:45:28.032Z,7.60
2019-03-30T06:47:57.827Z,7.80
2019-03-30T06:50:28.514Z,8.00
2019-03-30T06:52:58.915Z,8.20
2019-03-30T06:55:28.761Z,8.50
2019-03-30T06:57:58.387Z,8.60
2019-03-30T07:00:35.153Z,8.70
2019-03-30T07:03:06.045Z,8.90
2019-03-30T07:05:39.273Z,9.10
2019-03-30T07:08:14.701Z,9.30
2019-03-30T07:10:48.094Z,9.50
2019-03-30T07:13:17.694Z,9.80
2019-03-30T07:15:48.434Z,10.00
2019-03-30T07:18:18.347Z,10.30
2019-03-30T07:20:47.921Z,10.50
2019-03-30T07:23:18.658Z,10.80
2019-03-30T07:25:48.283Z,11.10
2019-03-30T07:28:17.854Z,11.50
2019-03-30T07:30:47.446Z,11.80
2019-03-30T07:33:17.057Z,12.00
2019-03-30T07:35:46.714Z,12.10
2019-03-30T07:38:16.347Z,12.20
2019-03-30T07:40:45.891Z,12.30
2019-03-30T07:43:15.613Z,12.60
2019-03-30T07:45:45.195Z,12.80
2019-03-30T07:48:14.804Z,12.90
2019-03-30T07:50:44.430Z,13.10
2019-03-30T07:53:25.767Z,13.20
2019-03-30T07:55:45.244Z,13.20
2019-03-30T07:58:14.858Z,13.20
2019-03-30T08:00:44.558Z,13.20
2019-03-30T08:03:14.091Z,13.10
2019-03-30T08:05:43.681Z,13.20
2019-03-30T08:08:13.202Z,13.30
2019-03-30T08:10:42.826Z,13.30
2019-03-30T08:13:12.402Z,13.60
2019-03-30T08:15:41.970Z,13.80
2019-03-30T08:18:11.750Z,13.90
2019-03-30T08:20:41.318Z,14.00
2019-03-30T08:23:10.885Z,14.10
2019-03-30T08:25:40.617Z,14.00
2019-03-30T08:28:10.970Z,14.20
2019-03-30T08:30:40.522Z,14.30
2019-03-30T08:33:10.297Z,14.40
2019-03-30T08:35:39.899Z,14.60
2019-03-30T08:38:09.785Z,14.60
2019-03-30T08:40:39.588Z,14.80
2019-03-30T08:43:09.530Z,14.90
2019-03-30T08:45:39.187Z,14.90
2019-03-30T08:48:08.937Z,15.00
2019-03-30T08:50:38.583Z,15.10
2019-03-30T08:53:08.510Z,15.20
2019-03-30T08:55:38.251Z,15.40
2019-03-30T08:58:07.834Z,15.60
2019-03-30T09:00:39.317Z,15.70
2019-03-30T09:03:09.148Z,15.80
2019-03-30T09:05:38.810Z,15.90
2019-03-30T09:08:08.716Z,16.00
2019-03-30T09:10:38.369Z,16.20
2019-03-30T09:13:08.119Z,16.40
2019-03-30T09:15:37.698Z,16.60
2019-03-30T09:18:07.255Z,16.80
2019-03-30T09:20:36.867Z,17.00
2019-03-30T09:23:06.515Z,17.20
2019-03-30T09:25:36.078Z,17.40
2019-03-30T09:28:05.715Z,17.70
2019-03-30T09:30:35.379Z,17.90
2019-03-30T09:33:04.975Z,18.00
2019-03-30T09:35:34.533Z,18.00
2019-03-30T09:38:04.927Z,18.20
2019-03-30T09:40:34.425Z,18.40
2019-03-30T09:43:03.986Z,18.30
2019-03-30T09:45:33.553Z,18.40
2019-03-30T09:48:03.146Z,18.40
2019-03-30T09:50:32.762Z,18.60
2019-03-30T09:53:02.359Z,18.80
2019-03-30T09:55:31.909Z,18.90
2019-03-30T09:58:01.472Z,18.90
2019-03-30T10:00:30.996Z,18.90
2019-03-30T10:03:00.938Z,18.90
2019-03-30T10:05:30.482Z,18.80
2019-03-30T10:08:00.103Z,18.90
2019-03-30T10:10:29.654Z,19.00
2019-03-30T10:12:59.241Z,19.10
2019-03-30T10:15:28.863Z,19.20
2019-03-30T10:17:58.443Z,19.30
2019-03-30T10:20:28.050Z,19.30
2019-03-30T10:22:57.670Z,19.20
2019-03-30T10:25:27.238Z,19.30
2019-03-30T10:27:56.794Z,19.30
2019-03-30T10:30:26.397Z,19.30
2019-03-30T10:32:55.999Z,19.50
2019-03-30T10:35:25.553Z,19.70
2019-03-30T10:37:55.101Z,19.90
2019-03-30T10:40:24.656Z,19.80
2019-03-30T10:42:54.202Z,20.00
2019-03-30T10:45:23.733Z,20.10
2019-03-30T10:47:53.446Z,20.00
2019-03-30T10:50:23.082Z,20.10
2019-03-30T10:52:52.614Z,20.20
2019-03-30T10:55:22.163Z,20.40
2019-03-30T10:57:52.013Z,20.60
2019-03-30T11:00:37.948Z,20.80
2019-03-30T11:03:07.672Z,20.80
2019-03-30T11:05:37.313Z,20.80
2019-03-30T11:08:06.976Z,20.90
2019-03-30T11:10:36.703Z,21.00
2019-03-30T11:13:06.325Z,21.20
2019-03-30T11:15:35.990Z,21.00
2019-03-30T11:18:05.555Z,21.20
2019-03-30T11:20:35.149Z,21.30
2019-03-30T11:23:04.785Z,21.20
2019-03-30T11:25:34.466Z,21.50
2019-03-30T11:28:04.173Z,21.40
2019-03-30T11:30:33.788Z,21.20
2019-03-30T11:33:03.382Z,21.10
2019-03-30T11:35:33.035Z,21.00
2019-03-30T11:38:02.600Z,20.80
2019-03-30T11:40:32.211Z,20.90
2019-03-30T11:43:01.833Z,20.80
2019-03-30T11:45:31.401Z,20.90
2019-03-30T11:48:01.343Z,20.90
2019-03-30T11:50:31.862Z,21.00
2019-03-30T11:53:01.438Z,21.20
2019-03-30T11:55:31.086Z,21.00
2019-03-30T11:58:01.065Z,20.90
2019-03-30T12:00:30.600Z,21.10
2019-03-30T12:03:00.326Z,21.20
2019-03-30T12:05:29.912Z,21.10
2019-03-30T12:07:59.572Z,21.00
2019-03-30T12:10:29.314Z,21.00
2019-03-30T12:12:58.851Z,21.00
2019-03-30T12:15:28.370Z,21.00
2019-03-30T12:17:57.950Z,20.90
2019-03-30T12:20:27.470Z,20.90
2019-03-30T12:22:57.078Z,21.00
2019-03-30T12:25:35.591Z,21.10
2019-03-30T12:27:57.889Z,20.90
2019-03-30T12:30:27.519Z,20.80
2019-03-30T12:32:57.143Z,20.70
2019-03-30T12:35:26.696Z,20.50
2019-03-30T12:37:56.276Z,20.20
2019-03-30T12:40:25.855Z,20.00
2019-03-30T12:42:55.573Z,20.00
2019-03-30T12:45:25.138Z,19.90
2019-03-30T12:47:54.650Z,19.90
2019-03-30T12:50:24.315Z,20.00
2019-03-30T12:52:53.922Z,20.40
2019-03-30T12:55:23.595Z,20.70
2019-03-30T12:57:53.216Z,20.90
2019-03-30T13:00:22.937Z,21.00
2019-03-30T13:02:52.513Z,20.90
2019-03-30T13:05:22.363Z,20.60
2019-03-30T13:07:52.010Z,20.40
2019-03-30T13:10:21.615Z,20.30
2019-03-30T13:12:51.257Z,20.40
2019-03-30T13:15:20.906Z,20.70
2019-03-30T13:17:50.538Z,21.10
2019-03-30T13:20:23.097Z,21.10
2019-03-30T13:22:52.732Z,21.10
2019-03-30T13:25:22.335Z,21.30
2019-03-30T13:27:53.397Z,21.50
2019-03-30T13:30:23.267Z,21.80
2019-03-30T13:32:53.539Z,21.90
2019-03-30T13:35:23.206Z,21.80
2019-03-30T13:37:52.900Z,21.70
2019-03-30T13:40:22.539Z,21.50
2019-03-30T13:42:52.197Z,21.50
2019-03-30T13:45:21.837Z,21.40
2019-03-30T13:47:51.475Z,21.40
2019-03-30T13:50:21.477Z,21.50
2019-03-30T13:52:51.051Z,21.50
2019-03-30T13:55:20.678Z,21.40
2019-03-30T13:57:50.336Z,21.30
2019-03-30T14:00:19.971Z,21.00
2019-03-30T14:02:49.531Z,20.80
2019-03-30T14:05:19.073Z,20.70
2019-03-30T14:07:48.610Z,20.60
2019-03-30T14:10:18.368Z,20.60
2019-03-30T14:12:48.295Z,20.70
2019-03-30T14:15:17.817Z,20.70
2019-03-30T14:17:47.378Z,20.70
2019-03-30T14:20:16.950Z,20.70
2019-03-30T14:22:46.513Z,20.70
2019-03-30T14:25:16.060Z,20.80
2019-03-30T14:27:46.069Z,21.20
2019-03-30T14:30:16.049Z,21.40
2019-03-30T14:32:45.583Z,21.40
2019-03-30T14:35:15.341Z,21.20
2019-03-30T14:37:44.866Z,21.10
2019-03-30T14:40:14.536Z,20.90
2019-03-30T14:42:44.095Z,20.80
2019-03-30T14:45:13.687Z,20.60
2019-03-30T14:47:43.212Z,20.60
2019-03-30T14:50:14.208Z,20.60
2019-03-30T14:52:43.862Z,20.90
2019-03-30T14:55:13.510Z,21.10
2019-03-30T14:57:43.194Z,21.10
2019-03-30T15:00:14.030Z,21.20
2019-03-30T15:02:43.733Z,21.40
2019-03-30T15:05:13.505Z,21.30
2019-03-30T15:07:43.194Z,21.20
2019-03-30T15:10:13.034Z,21.10
2019-03-30T15:12:42.640Z,20.70
2019-03-30T15:15:12.922Z,20.60
2019-03-30T15:17:42.486Z,20.50
2019-03-30T15:20:13.228Z,20.30
2019-03-30T15:22:42.947Z,20.30
2019-03-30T15:25:13.265Z,20.50
2019-03-30T15:27:42.830Z,20.50
2019-03-30T15:30:12.690Z,20.40
2019-03-30T15:32:42.285Z,20.40
2019-03-30T15:35:11.991Z,20.30
2019-03-30T15:37:41.551Z,20.20
2019-03-30T15:40:11.329Z,20.20
2019-03-30T15:42:40.882Z,20.20
2019-03-30T15:45:11.990Z,20.10
2019-03-30T15:47:41.626Z,20.10
2019-03-30T15:50:11.480Z,20.10
2019-03-30T15:52:41.147Z,20.10
2019-03-30T15:55:11.003Z,20.10
2019-03-30T15:57:40.627Z,20.00
2019-03-30T16:00:13.368Z,20.00
2019-03-30T16:02:42.918Z,19.90
2019-03-30T16:05:15.372Z,19.80
2019-03-30T16:07:44.448Z,19.70
2019-03-30T16:10:14.831Z,19.70
2019-03-30T16:12:44.394Z,19.70
2019-03-30T16:15:14.427Z,19.50
2019-03-30T16:17:43.946Z,19.50
2019-03-30T16:20:14.728Z,19.50
2019-03-30T16:22:45.552Z,19.60
2019-03-30T16:25:15.133Z,19.50
2019-03-30T16:27:44.793Z,19.60
2019-03-30T16:30:14.796Z,19.40
2019-03-30T16:32:44.339Z,19.30
2019-03-30T16:35:13.943Z,19.10
2019-03-30T16:37:43.594Z,19.10
2019-03-30T16:40:13.331Z,18.90
2019-03-30T16:42:42.874Z,18.90
2019-03-30T16:45:12.731Z,18.70
2019-03-30T16:47:42.318Z,18.80
2019-03-30T16:50:12.936Z,18.70
2019-03-30T16:52:42.550Z,18.60
2019-03-30T16:55:12.388Z,18.60
2019-03-30T16:57:44.074Z,18.50
2019-03-30T17:00:13.797Z,18.50
2019-03-30T17:02:43.430Z,18.40
2019-03-30T17:05:13.182Z,18.30
2019-03-30T17:07:42.778Z,18.30
2019-03-30T17:10:12.417Z,18.30
2019-03-30T17:12:41.955Z,18.20
2019-03-30T17:15:11.929Z,18.20
2019-03-30T17:17:41.471Z,18.10
2019-03-30T17:20:11.413Z,18.10
2019-03-30T17:22:41.444Z,18.00
2019-03-30T17:25:11.063Z,17.90
2019-03-30T17:27:40.629Z,17.80
2019-03-30T17:30:10.759Z,17.70
2019-03-30T17:32:40.390Z,17.70
2019-03-30T17:35:10.026Z,17.60
2019-03-30T17:37:39.651Z,17.50
2019-03-30T17:40:10.315Z,17.40
2019-03-30T17:42:39.929Z,17.20
2019-03-30T17:45:10.296Z,17.20
2019-03-30T17:47:39.810Z,17.00
2019-03-30T17:50:09.984Z,17.00
2019-03-30T17:52:39.592Z,16.90
2019-03-30T17:55:10.483Z,16.70
2019-03-30T17:57:40.248Z,16.60
2019-03-30T18:00:12.331Z,16.50
2019-03-30T18:02:41.870Z,16.40
2019-03-30T18:05:11.626Z,16.20
2019-03-30T18:07:41.341Z,16.10
2019-03-30T18:10:12.246Z,15.90
2019-03-30T18:12:41.824Z,15.80
2019-03-30T18:15:11.994Z,15.70
2019-03-30T18:17:41.548Z,15.50
2019-03-30T18:20:11.789Z,15.40
2019-03-30T18:22:41.432Z,15.30
2019-03-30T18:25:11.287Z,15.10
2019-03-30T18:27:40.872Z,15.00
2019-03-30T18:30:11.174Z,14.90
2019-03-30T18:32:41.492Z,14.80
2019-03-30T18:35:11.392Z,14.60
2019-03-30T18:37:41.248Z,14.60
2019-03-30T18:40:13.927Z,14.40
2019-03-30T18:42:43.522Z,14.30
2019-03-30T18:45:16.318Z,14.20
2019-03-30T18:47:45.931Z,14.10
2019-03-30T18:50:15.552Z,14.00
2019-03-30T18:52:45.626Z,13.90
2019-03-30T18:55:18.329Z,13.70
2019-03-30T18:57:47.930Z,13.60
2019-03-30T19:00:20.664Z,13.60
2019-03-30T19:02:50.325Z,13.50
2019-03-30T19:05:19.906Z,13.30
2019-03-30T19:07:49.735Z,13.30
2019-03-30T19:10:19.330Z,13.10
2019-03-30T19:12:48.979Z,13.00
2019-03-30T19:15:18.528Z,12.90
2019-03-30T19:17:48.152Z,12.80
2019-03-30T19:20:17.781Z,12.70
2019-03-30T19:22:47.422Z,12.70
2019-03-30T19:25:16.973Z,12.60
2019-03-30T19:27:46.566Z,12.50
2019-03-30T19:30:16.875Z,12.50
2019-03-30T19:32:46.450Z,12.40
2019-03-30T19:35:17.182Z,12.30
2019-03-30T19:37:46.779Z,12.20
2019-03-30T19:40:16.346Z,12.10
2019-03-30T19:42:45.932Z,12.00
2019-03-30T19:45:15.862Z,12.00
2019-03-30T19:47:45.396Z,12.00
2019-03-30T19:50:14.988Z,11.90
2019-03-30T19:52:44.523Z,11.80
2019-03-30T19:55:14.261Z,11.80
2019-03-30T19:57:44.406Z,11.70
2019-03-30T20:00:15.563Z,11.70
2019-03-30T20:02:46.149Z,11.70
2019-03-30T20:05:16.136Z,11.70
2019-03-30T20:07:45.911Z,11.70
2019-03-30T20:10:15.736Z,11.70
2019-03-30T20:12:45.394Z,11.80
2019-03-30T20:15:14.991Z,11.80
2019-03-30T20:17:44.687Z,11.80
2019-03-30T20:20:14.306Z,11.80
2019-03-30T20:22:43.833Z,11.80
2019-03-30T20:25:13.559Z,11.80
2019-03-30T20:27:43.371Z,11.80
2019-03-30T20:30:13.241Z,11.70
2019-03-30T20:32:43.224Z,11.80
2019-03-30T20:35:13.316Z,11.80
2019-03-30T20:37:42.838Z,11.80
2019-03-30T20:40:12.567Z,11.70
2019-03-30T20:42:42.106Z,11.70
2019-03-30T20:45:13.535Z,11.70
2019-03-30T20:47:43.210Z,11.70
2019-03-30T20:50:13.442Z,11.70
2019-03-30T20:52:43.182Z,11.60
2019-03-30T20:55:13.481Z,11.60
2019-03-30T20:57:43.050Z,11.60
2019-03-30T21:00:13.386Z,11.60
2019-03-30T21:02:42.967Z,11.60
2019-03-30T21:05:12.703Z,11.60
2019-03-30T21:07:42.341Z,11.60
2019-03-30T21:10:12.228Z,11.70
2019-03-30T21:12:41.820Z,11.70
2019-03-30T21:15:12.104Z,11.70
2019-03-30T21:17:41.718Z,11.70
2019-03-30T21:20:11.914Z,11.70
2019-03-30T21:22:41.468Z,11.80
2019-03-30T21:25:11.205Z,11.80
2019-03-30T21:27:40.792Z,11.80
2019-03-30T21:30:12.238Z,11.80
2019-03-30T21:32:42.371Z,11.80
2019-03-30T21:35:12.126Z,11.70
2019-03-30T21:37:41.650Z,11.70
2019-03-30T21:40:11.409Z,11.80
2019-03-30T21:42:41.035Z,11.80
2019-03-30T21:45:11.662Z,11.80
2019-03-30T21:47:41.174Z,11.80
2019-03-30T21:50:10.867Z,11.80
2019-03-30T21:52:40.398Z,11.80
2019-03-30T21:55:10.224Z,11.80
2019-03-30T21:57:39.737Z,11.80
2019-03-30T22:00:11.001Z,11.80
2019-03-30T22:02:40.694Z,11.80
2019-03-30T22:05:11.627Z,11.80
2019-03-30T22:07:41.290Z,11.70
2019-03-30T22:10:13.993Z,11.80
2019-03-30T22:12:43.601Z,11.70
2019-03-30T22:15:16.263Z,11.70
2019-03-30T22:17:45.816Z,11.70
2019-03-30T22:20:15.365Z,11.60
2019-03-30T22:22:44.993Z,11.60
2019-03-30T22:25:14.699Z,11.60
2019-03-30T22:27:44.215Z,11.50
2019-03-30T22:30:24.668Z,11.40
2019-03-30T22:32:45.171Z,11.40
2019-03-30T22:35:14.791Z,11.30
2019-03-30T22:37:44.432Z,11.30
2019-03-30T22:40:14.153Z,11.20
2019-03-30T22:42:43.803Z,11.20
2019-03-30T22:45:13.462Z,11.20
2019-03-30T22:47:43.186Z,11.10
2019-03-30T22:50:13.675Z,11.10
2019-03-30T22:52:43.296Z,11.10
2019-03-30T22:55:12.848Z,11.10
2019-03-30T22:57:42.489Z,11.10
2019-03-30T23:00:17.113Z,11.10
2019-03-30T23:02:46.805Z,11.00
2019-03-30T23:05:16.455Z,11.00
2019-03-30T23:07:45.997Z,10.90
2019-03-30T23:10:15.625Z,10.90
2019-03-30T23:12:45.250Z,10.80
2019-03-30T23:15:14.914Z,10.70
2019-03-30T23:17:44.529Z,10.60
2019-03-30T23:20:14.193Z,10.60
2019-03-30T23:22:43.777Z,10.50
2019-03-30T23:25:13.634Z,10.40
2019-03-30T23:27:43.154Z,10.30
2019-03-30T23:30:12.983Z,10.30
2019-03-30T23:32:42.565Z,10.20
2019-03-30T23:35:12.363Z,10.10
2019-03-30T23:37:41.926Z,10.10
2019-03-30T23:40:11.533Z,10.10
2019-03-30T23:42:41.097Z,10.00
2019-03-30T23:45:10.804Z,9.90
2019-03-30T23:47:40.359Z,9.90
2019-03-30T23:50:09.884Z,9.80
2019-03-30T23:52:39.423Z,9.80
2019-03-30T23:55:09.104Z,9.70
2019-03-30T23:57:38.645Z,9.70
